createdAt,value
2019-06-15T00:00:18.297Z,90.88
2019-06-15T00:01:18.268Z,90.3
2019-06-15T00:02:18.032Z,90.01
2019-06-15T00:03:18.267Z,90.01
2019-06-15T00:04:18.264Z,90.01
2019-06-15T00:05:18.269Z,90.01
2019-06-15T00:06:18.031Z,89.53
2019-06-15T00:07:18.278Z,89.92
2019-06-15T00:08:18.274Z,91.07
2019-06-15T00:09:18.277Z,90.59
2019-06-15T00:10:18.031Z,90.69
2019-06-15T00:11:18.043Z,90.93
2019-06-15T00:12:18.028Z,90.83
2019-06-15T00:13:18.289Z,92.57
2019-06-15T00:14:18.037Z,94.3
2019-06-15T00:15:18.049Z,94.87
2019-06-15T00:16:18.331Z,95.07
2019-06-15T00:17:18.287Z,94.78
2019-06-15T00:18:18.046Z,94.59
2019-06-15T00:19:18.308Z,94.1
2019-06-15T00:20:18.282Z,93.53
2019-06-15T00:21:18.039Z,93.62
2019-06-15T00:22:18.552Z,93.62
2019-06-15T00:23:18.044Z,93.62
2019-06-15T00:24:18.297Z,93.33
2019-06-15T00:25:18.294Z,93.62
2019-06-15T00:26:18.294Z,93.33
2019-06-15T00:27:18.043Z,93.53
2019-06-15T00:28:18.148Z,93.62
2019-06-15T00:29:18.309Z,93.72
2019-06-15T00:30:18.324Z,93.33
2019-06-15T00:31:18.295Z,93.24
2019-06-15T00:32:18.306Z,93.15
2019-06-15T00:33:18.311Z,93.24
2019-06-15T00:34:18.108Z,93.15
2019-06-15T00:35:18.314Z,93.05
2019-06-15T00:36:18.318Z,93.72
2019-06-15T00:37:18.311Z,93.91
2019-06-15T00:38:18.069Z,93.53
2019-06-15T00:39:18.074Z,93.68
2019-06-15T00:40:18.328Z,93.96
2019-06-15T00:41:18.069Z,94.06
2019-06-15T00:42:18.316Z,94.06
2019-06-15T00:43:18.362Z,93.87
2019-06-15T00:44:18.070Z,93.68
2019-06-15T00:45:18.326Z,93.29
2019-06-15T00:46:18.069Z,94.15
2019-06-15T00:47:18.321Z,94.83
2019-06-15T00:48:18.068Z,95.5
2019-06-15T00:49:18.459Z,95.89
2019-06-15T00:50:18.325Z,96.37
2019-06-15T00:51:18.072Z,95.4
2019-06-15T00:52:18.082Z,95.4
2019-06-15T00:53:18.341Z,95.12
2019-06-15T00:54:18.121Z,95.6
2019-06-15T00:55:18.332Z,95.7
2019-06-15T00:56:18.109Z,95.7
2019-06-15T00:57:18.089Z,96.42
2019-06-15T00:58:18.334Z,96.51
2019-06-15T00:59:18.327Z,96.61
2019-06-15T01:00:18.336Z,97.09
2019-06-15T01:01:18.084Z,97.19
2019-06-15T01:02:18.341Z,96.9
2019-06-15T01:03:18.085Z,96.8
2019-06-15T01:04:18.089Z,97.19
2019-06-15T01:05:18.332Z,97.76
2019-06-15T01:06:18.347Z,97.28
2019-06-15T01:07:18.334Z,98.34
2019-06-15T01:08:18.084Z,98.05
2019-06-15T01:09:18.086Z,97.76
2019-06-15T01:10:18.343Z,97.76
2019-06-15T01:11:18.086Z,98.24
2019-06-15T01:12:18.338Z,97.96
2019-06-15T01:13:18.093Z,97.67
2019-06-15T01:14:18.093Z,97.47
2019-06-15T01:15:18.111Z,97.09
2019-06-15T01:16:18.362Z,97.86
2019-06-15T01:17:18.101Z,98.05
2019-06-15T01:18:18.351Z,98.05
2019-06-15T01:19:18.358Z,98.63
2019-06-15T01:20:18.133Z,98.34
2019-06-15T01:21:18.340Z,98.44
2019-06-15T01:22:18.349Z,98.24
2019-06-15T01:23:18.127Z,98.05
2019-06-15T01:24:18.104Z,98.29
2019-06-15T01:25:18.110Z,98.72
2019-06-15T01:26:18.108Z,99.54
2019-06-15T01:27:18.348Z,99.73
2019-06-15T01:28:18.342Z,99.92
2019-06-15T01:29:18.351Z,99.99
2019-06-15T01:30:18.347Z,99.99
2019-06-15T01:31:18.347Z,99.99
2019-06-15T01:32:18.115Z,99.99
2019-06-15T01:33:18.341Z,99.99
2019-06-15T01:34:18.345Z,99.99
2019-06-15T01:35:18.357Z,99.99
2019-06-15T01:36:18.347Z,99.99
2019-06-15T01:37:18.091Z,99.99
2019-06-15T01:38:18.355Z,99.99
2019-06-15T01:39:18.116Z,99.99
2019-06-15T01:40:18.360Z,99.99
2019-06-15T01:41:18.348Z,99.99
2019-06-15T01:42:18.114Z,99.99
2019-06-15T01:43:18.107Z,99.99
2019-06-15T01:44:18.121Z,99.99
2019-06-15T01:45:18.344Z,99.99
2019-06-15T01:46:18.362Z,99.99
2019-06-15T01:47:18.360Z,99.99
2019-06-15T01:48:18.354Z,99.99
2019-06-15T01:49:18.348Z,99.99
2019-06-15T01:50:18.127Z,99.99
2019-06-15T01:51:18.115Z,99.99
2019-06-15T01:52:18.128Z,99.99
2019-06-15T01:53:18.129Z,99.99
2019-06-15T01:54:18.352Z,99.99
2019-06-15T01:55:23.368Z,99.99
2019-06-15T01:56:18.351Z,99.99
2019-06-15T01:57:18.349Z,99.99
2019-06-15T01:58:18.363Z,99.99
2019-06-15T01:59:18.132Z,99.99
2019-06-15T02:00:18.122Z,99.99
2019-06-15T02:01:18.134Z,99.99
2019-06-15T02:02:18.416Z,99.99
2019-06-15T02:03:18.103Z,99.99
2019-06-15T02:04:18.350Z,99.99
2019-06-15T02:05:18.372Z,99.99
2019-06-15T02:06:18.121Z,99.99
2019-06-15T02:07:18.354Z,99.99
2019-06-15T02:08:18.355Z,99.99
2019-06-15T02:09:18.113Z,99.99
2019-06-15T02:10:18.150Z,99.99
2019-06-15T02:11:18.356Z,99.99
2019-06-15T02:12:18.434Z,99.99
2019-06-15T02:13:18.153Z,99.99
2019-06-15T02:14:18.369Z,99.99
2019-06-15T02:15:18.355Z,99.99
2019-06-15T02:16:18.366Z,99.99
2019-06-15T02:17:18.370Z,99.99
2019-06-15T02:18:18.113Z,99.99
2019-06-15T02:19:18.355Z,99.99
2019-06-15T02:20:18.127Z,99.99
2019-06-15T02:21:18.369Z,99.99
2019-06-15T02:22:18.137Z,99.99
2019-06-15T02:23:18.103Z,99.99
2019-06-15T02:24:18.406Z,99.99
2019-06-15T02:25:18.396Z,99.99
2019-06-15T02:26:18.360Z,99.99
2019-06-15T02:27:18.116Z,99.99
2019-06-15T02:28:18.104Z,99.99
2019-06-15T02:29:18.354Z,99.99
2019-06-15T02:30:18.385Z,99.99
2019-06-15T02:31:18.377Z,99.99
2019-06-15T02:32:18.378Z,99.99
2019-06-15T02:33:18.369Z,99.99
2019-06-15T02:34:18.353Z,99.99
2019-06-15T02:35:18.368Z,99.99
2019-06-15T02:36:18.378Z,99.99
2019-06-15T02:37:18.125Z,99.99
2019-06-15T02:38:18.126Z,99.99
2019-06-15T02:39:18.110Z,99.99
2019-06-15T02:40:18.365Z,99.99
2019-06-15T02:41:18.355Z,99.99
2019-06-15T02:42:18.107Z,99.99
2019-06-15T02:43:18.110Z,99.99
2019-06-15T02:44:18.369Z,99.99
2019-06-15T02:45:18.365Z,99.99
2019-06-15T02:46:18.108Z,99.99
2019-06-15T02:47:18.370Z,99.99
2019-06-15T02:48:18.367Z,99.99
2019-06-15T02:49:18.111Z,99.99
2019-06-15T02:50:18.128Z,99.99
2019-06-15T02:51:18.491Z,99.99
2019-06-15T02:52:18.113Z,99.99
2019-06-15T02:53:18.114Z,99.99
2019-06-15T02:54:18.361Z,99.99
2019-06-15T02:55:18.115Z,99.99
2019-06-15T02:56:18.119Z,99.99
2019-06-15T02:57:18.371Z,99.99
2019-06-15T02:58:18.112Z,99.99
2019-06-15T02:59:18.371Z,99.99
2019-06-15T03:00:18.366Z,99.99
2019-06-15T03:01:18.376Z,99.99
2019-06-15T03:02:18.357Z,99.99
2019-06-15T03:03:18.110Z,99.99
2019-06-15T03:04:18.374Z,99.99
2019-06-15T03:05:18.114Z,99.99
2019-06-15T03:06:18.356Z,99.99
2019-06-15T03:07:18.356Z,99.99
2019-06-15T03:08:18.359Z,99.99
2019-06-15T03:09:18.401Z,99.99
2019-06-15T03:10:18.361Z,99.99
2019-06-15T03:11:18.357Z,99.99
2019-06-15T03:12:18.110Z,99.99
2019-06-15T03:13:18.113Z,99.99
2019-06-15T03:14:18.356Z,99.99
2019-06-15T03:15:18.362Z,99.99
2019-06-15T03:16:18.127Z,99.99
2019-06-15T03:17:18.352Z,99.99
2019-06-15T03:18:18.353Z,99.99
2019-06-15T03:19:18.358Z,99.99
2019-06-15T03:20:18.372Z,99.99
2019-06-15T03:21:18.368Z,99.99
2019-06-15T03:22:18.110Z,99.99
2019-06-15T03:23:18.353Z,99.99
2019-06-15T03:24:18.366Z,99.99
2019-06-15T03:25:18.419Z,99.99
2019-06-15T03:26:18.372Z,99.99
2019-06-15T03:27:18.358Z,99.99
2019-06-15T03:28:18.111Z,99.99
2019-06-15T03:29:18.354Z,99.99
2019-06-15T03:30:18.367Z,99.99
2019-06-15T03:31:18.359Z,99.99
2019-06-15T03:32:18.117Z,99.99
2019-06-15T03:33:18.106Z,99.99
2019-06-15T03:34:18.103Z,99.99
2019-06-15T03:35:18.354Z,99.99
2019-06-15T03:36:18.349Z,99.99
2019-06-15T03:37:18.360Z,99.99
2019-06-15T03:38:18.118Z,99.99
2019-06-15T03:39:18.123Z,99.99
2019-06-15T03:40:18.350Z,99.99
2019-06-15T03:41:18.358Z,99.99
2019-06-15T03:42:18.120Z,99.99
2019-06-15T03:43:18.100Z,99.99
2019-06-15T03:44:18.342Z,99.99
2019-06-15T03:45:18.099Z,99.99
2019-06-15T03:46:18.347Z,99.99
2019-06-15T03:47:18.352Z,99.99
2019-06-15T03:48:18.106Z,99.99
2019-06-15T03:49:18.356Z,99.99
2019-06-15T03:50:18.358Z,99.99
2019-06-15T03:51:18.341Z,99.99
2019-06-15T03:52:18.097Z,99.99
2019-06-15T03:53:18.103Z,99.99
2019-06-15T03:54:18.110Z,99.99
2019-06-15T03:55:18.359Z,99.99
2019-06-15T03:56:24.031Z,99.99
2019-06-15T03:57:18.344Z,99.99
2019-06-15T03:58:18.341Z,99.99
2019-06-15T03:59:18.351Z,99.99
2019-06-15T04:00:18.348Z,99.99
2019-06-15T04:01:18.347Z,99.99
2019-06-15T04:02:18.106Z,99.99
2019-06-15T04:03:18.112Z,99.99
2019-06-15T04:04:18.343Z,99.99
2019-06-15T04:05:18.355Z,99.99
2019-06-15T04:06:18.362Z,99.99
2019-06-15T04:07:18.345Z,99.99
2019-06-15T04:08:18.105Z,99.99
2019-06-15T04:09:18.346Z,99.99
2019-06-15T04:10:18.111Z,99.99
2019-06-15T04:11:18.338Z,99.99
2019-06-15T04:12:18.101Z,99.99
2019-06-15T04:13:18.102Z,99.99
2019-06-15T04:14:18.347Z,99.99
2019-06-15T04:15:18.358Z,99.99
2019-06-15T04:16:18.359Z,99.99
2019-06-15T04:17:18.111Z,99.06
2019-06-15T04:18:18.350Z,98.77
2019-06-15T04:19:18.367Z,98.24
2019-06-15T04:20:18.358Z,96.12
2019-06-15T04:21:18.424Z,94.68
2019-06-15T04:22:18.120Z,94.1
2019-06-15T04:23:19.177Z,94.01
2019-06-15T04:24:18.378Z,94.49
2019-06-15T04:25:18.413Z,94.15
2019-06-15T04:26:18.398Z,93.09
2019-06-15T04:27:18.360Z,91.94
2019-06-15T04:28:18.117Z,90.78
2019-06-15T04:29:18.125Z,90.16
2019-06-15T04:30:18.378Z,90.44
2019-06-15T04:31:18.366Z,89.19
2019-06-15T04:32:18.392Z,89
2019-06-15T04:33:18.385Z,89.09
2019-06-15T04:34:18.392Z,88.61
2019-06-15T04:35:18.136Z,88.17
2019-06-15T04:36:18.384Z,87.21
2019-06-15T04:37:18.388Z,87.4
2019-06-15T04:38:18.404Z,87.4
2019-06-15T04:39:18.391Z,87.7
2019-06-15T04:40:18.177Z,88.42
2019-06-15T04:41:18.391Z,88.04
2019-06-15T04:42:18.404Z,87.94
2019-06-15T04:43:18.400Z,88.17
2019-06-15T04:44:18.410Z,87.94
2019-06-15T04:45:18.165Z,87.46
2019-06-15T04:46:18.405Z,87.26
2019-06-15T04:47:18.159Z,86.88
2019-06-15T04:48:18.168Z,87.07
2019-06-15T04:49:18.407Z,86.88
2019-06-15T04:50:18.415Z,86.92
2019-06-15T04:51:18.407Z,86.01
2019-06-15T04:52:18.169Z,85.86
2019-06-15T04:53:18.417Z,85.67
2019-06-15T04:54:18.411Z,85.19
2019-06-15T04:55:18.425Z,85.38
2019-06-15T04:56:18.430Z,85.38
2019-06-15T04:57:18.418Z,84.99
2019-06-15T04:58:18.225Z,84.99
2019-06-15T04:59:18.246Z,85.28
2019-06-15T05:00:18.217Z,86.05
2019-06-15T05:01:18.451Z,87.3
2019-06-15T05:02:18.510Z,86.82
2019-06-15T05:03:18.507Z,86.54
2019-06-15T05:04:18.477Z,86.05
2019-06-15T05:05:18.205Z,85.86
2019-06-15T05:06:18.188Z,86.15
2019-06-15T05:07:18.445Z,86.35
2019-06-15T05:08:18.440Z,87.02
2019-06-15T05:09:18.453Z,86.35
2019-06-15T05:10:18.220Z,84.99
2019-06-15T05:11:18.204Z,83.4
2019-06-15T05:12:18.204Z,81.32
2019-06-15T05:13:18.456Z,78.94
2019-06-15T05:14:18.208Z,77.21
2019-06-15T05:15:18.223Z,75.6
2019-06-15T05:16:18.468Z,75.22
2019-06-15T05:17:18.491Z,74.83
2019-06-15T05:18:18.223Z,74.64
2019-06-15T05:19:18.290Z,74.64
2019-06-15T05:20:18.494Z,75.02
2019-06-15T05:21:18.489Z,75.22
2019-06-15T05:22:18.490Z,75.31
2019-06-15T05:23:18.488Z,75.45
2019-06-15T05:24:18.492Z,74.68
2019-06-15T05:25:18.516Z,74.68
2019-06-15T05:26:18.507Z,74.48
2019-06-15T05:27:18.257Z,72.94
2019-06-15T05:28:18.274Z,72.3
2019-06-15T05:29:18.269Z,72.2
2019-06-15T05:30:18.545Z,72.1
2019-06-15T05:31:18.527Z,71.91
2019-06-15T05:32:18.520Z,72.68
2019-06-15T05:33:19.322Z,72.26
2019-06-15T05:34:18.526Z,72.06
2019-06-15T05:35:18.535Z,72.74
2019-06-15T05:36:18.533Z,72.55
2019-06-15T05:37:18.556Z,72.84
2019-06-15T05:38:18.350Z,72.39
2019-06-15T05:39:18.556Z,70.68
2019-06-15T05:40:18.577Z,68.59
2019-06-15T05:41:18.784Z,66.98
2019-06-15T05:42:18.581Z,65.85
2019-06-15T05:43:18.575Z,63.27
2019-06-15T05:44:18.573Z,62.82
2019-06-15T05:45:18.332Z,62.62
2019-06-15T05:46:18.595Z,62.62
2019-06-15T05:47:18.593Z,62.72
2019-06-15T05:48:18.600Z,61.75
2019-06-15T05:49:18.596Z,62.04
2019-06-15T05:50:18.668Z,61.75
2019-06-15T05:51:18.375Z,62.72
2019-06-15T05:52:18.381Z,61.94
2019-06-15T05:53:18.371Z,63.1
2019-06-15T05:54:18.625Z,64.92
2019-06-15T05:55:18.637Z,66.47
2019-06-15T05:56:18.638Z,66.24
2019-06-15T05:57:23.961Z,66.63
2019-06-15T05:58:18.658Z,65.66
2019-06-15T05:59:18.403Z,64.79
2019-06-15T06:00:18.676Z,64.04
2019-06-15T06:01:18.423Z,63.17
2019-06-15T06:02:21.023Z,62.43
2019-06-15T06:03:18.673Z,61.85
2019-06-15T06:04:18.690Z,60.55
2019-06-15T06:05:18.691Z,59.31
2019-06-15T06:06:18.452Z,57.4
2019-06-15T06:07:18.445Z,57.17
2019-06-15T06:08:18.713Z,56.1
2019-06-15T06:09:18.488Z,54.96
2019-06-15T06:10:18.474Z,53.4
2019-06-15T06:11:18.733Z,55.25
2019-06-15T06:12:18.485Z,52.65
2019-06-15T06:13:18.747Z,53.04
2019-06-15T06:14:18.504Z,53.4
2019-06-15T06:15:18.770Z,54.18
2019-06-15T06:16:18.766Z,54.54
2019-06-15T06:17:18.769Z,55.22
2019-06-15T06:18:18.773Z,57.56
2019-06-15T06:19:18.780Z,56.1
2019-06-15T06:20:18.796Z,56.1
2019-06-15T06:21:18.800Z,57.17
2019-06-15T06:22:18.802Z,56
2019-06-15T06:23:18.566Z,55.32
2019-06-15T06:24:18.829Z,53.01
2019-06-15T06:25:18.837Z,53.91
2019-06-15T06:26:18.844Z,54.79
2019-06-15T06:27:18.849Z,53.14
2019-06-15T06:28:18.594Z,52.09
2019-06-15T06:29:19.425Z,51.8
2019-06-15T06:30:18.888Z,51.61
2019-06-15T06:31:18.900Z,50.75
2019-06-15T06:32:18.908Z,49.32
2019-06-15T06:33:18.901Z,48.17
2019-06-15T06:34:18.652Z,48.66
2019-06-15T06:35:18.678Z,49.93
2019-06-15T06:36:18.675Z,50.29
2019-06-15T06:37:18.919Z,50.56
2019-06-15T06:38:18.971Z,51.31
2019-06-15T06:39:18.694Z,52.48
2019-06-15T06:40:18.986Z,52.65
2019-06-15T06:41:18.696Z,53.4
2019-06-15T06:42:18.704Z,54.66
2019-06-15T06:43:19.060Z,55.61
2019-06-15T06:44:18.966Z,58.11
2019-06-15T06:45:18.974Z,57.79
2019-06-15T06:46:18.732Z,57.28
2019-06-15T06:47:18.986Z,58.8
2019-06-15T06:48:18.741Z,59.87
2019-06-15T06:49:19.023Z,61.58
2019-06-15T06:50:18.756Z,61.1
2019-06-15T06:51:19.016Z,60.91
2019-06-15T06:52:19.011Z,60.61
2019-06-15T06:53:19.025Z,60.88
2019-06-15T06:54:19.053Z,61.26
2019-06-15T06:55:18.788Z,64.07
2019-06-15T06:56:19.035Z,64.85
2019-06-15T06:57:18.797Z,65.2
2019-06-15T06:58:18.836Z,63.07
2019-06-15T06:59:19.868Z,63.07
2019-06-15T07:00:19.061Z,63.65
2019-06-15T07:01:19.059Z,64.69
2019-06-15T07:02:18.818Z,65.43
2019-06-15T07:03:19.074Z,66.98
2019-06-15T07:04:19.082Z,67.53
2019-06-15T07:05:19.081Z,68.27
2019-06-15T07:06:19.089Z,68.37
2019-06-15T07:07:19.096Z,69.14
2019-06-15T07:08:18.861Z,70.01
2019-06-15T07:09:18.856Z,68.75
2019-06-15T07:10:18.866Z,68.4
2019-06-15T07:11:19.157Z,68.4
2019-06-15T07:12:19.129Z,68.46
2019-06-15T07:13:18.887Z,67.82
2019-06-15T07:14:19.144Z,65.63
2019-06-15T07:15:19.141Z,65.53
2019-06-15T07:16:19.139Z,65.14
2019-06-15T07:17:19.138Z,66.34
2019-06-15T07:18:18.904Z,64.59
2019-06-15T07:19:19.153Z,63.65
2019-06-15T07:20:19.162Z,63.85
2019-06-15T07:21:18.921Z,63.65
2019-06-15T07:22:19.163Z,64.4
2019-06-15T07:23:19.182Z,65.08
2019-06-15T07:24:19.170Z,63.92
2019-06-15T07:25:19.181Z,61.62
2019-06-15T07:26:18.929Z,61.94
2019-06-15T07:27:18.938Z,61.94
2019-06-15T07:28:19.294Z,63.75
2019-06-15T07:29:18.962Z,65.08
2019-06-15T07:30:19.210Z,66.72
2019-06-15T07:31:18.994Z,69.11
2019-06-15T07:32:19.238Z,68.79
2019-06-15T07:33:19.244Z,69.27
2019-06-15T07:34:19.229Z,68.27
2019-06-15T07:35:19.231Z,69.53
2019-06-15T07:36:19.227Z,68.46
2019-06-15T07:37:19.239Z,66.85
2019-06-15T07:38:18.993Z,65.72
2019-06-15T07:39:19.242Z,65.56
2019-06-15T07:40:18.998Z,64.59
2019-06-15T07:41:19.252Z,65.53
2019-06-15T07:42:19.259Z,65.17
2019-06-15T07:43:19.263Z,64.2
2019-06-15T07:44:19.259Z,62.88
2019-06-15T07:45:19.272Z,62.72
2019-06-15T07:46:19.314Z,60.68
2019-06-15T07:47:19.279Z,61
2019-06-15T07:48:19.295Z,61.1
2019-06-15T07:49:19.284Z,59.64
2019-06-15T07:50:19.045Z,60.16
2019-06-15T07:51:19.312Z,59.28
2019-06-15T07:52:19.310Z,60.03
2019-06-15T07:53:19.069Z,60.88
2019-06-15T07:54:19.338Z,59.81
2019-06-15T07:55:19.330Z,59.45
2019-06-15T07:56:19.324Z,58.31
2019-06-15T07:57:19.322Z,54.58
2019-06-15T07:58:27.061Z,51.62
2019-06-15T07:59:19.381Z,51.39
2019-06-15T08:00:19.112Z,52.33
2019-06-15T08:01:19.105Z,53.08
2019-06-15T08:02:19.357Z,53.35
2019-06-15T08:03:19.373Z,54.13
2019-06-15T08:04:19.364Z,54.52
2019-06-15T08:05:19.376Z,54.97
2019-06-15T08:06:19.128Z,56.14
2019-06-15T08:07:19.129Z,55.75
2019-06-15T08:08:19.144Z,55.46
2019-06-15T08:09:19.399Z,53.54
2019-06-15T08:10:19.399Z,52.92
2019-06-15T08:11:19.402Z,53.47
2019-06-15T08:12:19.462Z,52.82
2019-06-15T08:13:19.190Z,52.33
2019-06-15T08:14:19.437Z,51.84
2019-06-15T08:15:19.456Z,51.45
2019-06-15T08:16:19.435Z,51.26
2019-06-15T08:17:19.197Z,52.04
2019-06-15T08:18:19.450Z,53.69
2019-06-15T08:19:19.491Z,53.5
2019-06-15T08:20:19.211Z,53.89
2019-06-15T08:21:19.221Z,53.96
2019-06-15T08:22:19.485Z,55.61
2019-06-15T08:23:19.494Z,53.96
2019-06-15T08:24:19.237Z,52.69
2019-06-15T08:25:19.326Z,51.92
2019-06-15T08:26:19.253Z,50.95
2019-06-15T08:27:19.503Z,49.97
2019-06-15T08:28:19.277Z,47.69
2019-06-15T08:29:19.536Z,46.15
2019-06-15T08:30:19.268Z,45.71
2019-06-15T08:31:19.534Z,44.46
2019-06-15T08:32:19.290Z,44.19
2019-06-15T08:33:19.285Z,43.51
2019-06-15T08:34:19.544Z,40.63
2019-06-15T08:35:19.560Z,41.13
2019-06-15T08:36:19.602Z,40.84
2019-06-15T08:37:19.572Z,41.13
2019-06-15T08:38:19.325Z,41.7
2019-06-15T08:39:19.337Z,40.72
2019-06-15T08:40:19.377Z,40.8
2019-06-15T08:41:19.634Z,42.24
2019-06-15T08:42:19.602Z,43.29
2019-06-15T08:43:19.354Z,44.66
2019-06-15T08:44:19.610Z,43.95
2019-06-15T08:45:19.639Z,43.19
2019-06-15T08:46:19.650Z,43.29
2019-06-15T08:47:19.643Z,43.12
2019-06-15T08:48:19.641Z,43.49
2019-06-15T08:49:19.657Z,44.54
2019-06-15T08:50:19.418Z,45.88
2019-06-15T08:51:19.700Z,46.05
2019-06-15T08:52:19.419Z,47.49
2019-06-15T08:53:19.442Z,49
2019-06-15T08:54:19.697Z,49.95
2019-06-15T08:55:19.696Z,50.04
2019-06-15T08:56:19.726Z,48.51
2019-06-15T08:57:19.739Z,48.34
2019-06-15T08:58:19.731Z,48.15
2019-06-15T08:59:19.751Z,47.1
2019-06-15T09:00:19.497Z,48.44
2019-06-15T09:01:19.729Z,49.22
2019-06-15T09:02:19.738Z,49.78
2019-06-15T09:03:19.739Z,50.73
2019-06-15T09:04:19.964Z,51.38
2019-06-15T09:05:19.752Z,51.97
2019-06-15T09:06:19.507Z,52.64
2019-06-15T09:07:19.769Z,52.25
2019-06-15T09:08:19.525Z,52.72
2019-06-15T09:09:19.528Z,53.27
2019-06-15T09:10:19.855Z,53.66
2019-06-15T09:11:19.813Z,54.72
2019-06-15T09:12:19.547Z,54.34
2019-06-15T09:13:19.549Z,54.34
2019-06-15T09:14:19.840Z,53.37
2019-06-15T09:15:19.576Z,53
2019-06-15T09:16:19.571Z,53.88
2019-06-15T09:17:19.828Z,51.84
2019-06-15T09:18:19.831Z,51.09
2019-06-15T09:19:19.851Z,50.7
2019-06-15T09:20:19.917Z,51.18
2019-06-15T09:21:19.672Z,51.18
2019-06-15T09:22:19.866Z,50.24
2019-06-15T09:23:19.947Z,50.92
2019-06-15T09:24:19.863Z,51.57
2019-06-15T09:25:19.897Z,52.23
2019-06-15T09:26:19.894Z,52.15
2019-06-15T09:27:19.891Z,51.09
2019-06-15T09:28:19.902Z,51.67
2019-06-15T09:29:19.898Z,52.06
2019-06-15T09:30:19.703Z,51.09
2019-06-15T09:31:19.933Z,51.28
2019-06-15T09:32:19.944Z,51.48
2019-06-15T09:33:19.976Z,51.48
2019-06-15T09:34:21.715Z,52.25
2019-06-15T09:35:19.922Z,51.77
2019-06-15T09:36:19.938Z,51.97
2019-06-15T09:37:19.683Z,51.4
2019-06-15T09:38:19.683Z,52.35
2019-06-15T09:39:19.950Z,51.97
2019-06-15T09:40:19.700Z,51.48
2019-06-15T09:41:19.976Z,51.31
2019-06-15T09:42:19.715Z,51.7
2019-06-15T09:43:19.991Z,51.28
2019-06-15T09:44:19.735Z,52.74
2019-06-15T09:45:19.750Z,51.01
2019-06-15T09:46:19.737Z,50.63
2019-06-15T09:47:19.740Z,49.87
2019-06-15T09:48:19.775Z,50.43
2019-06-15T09:49:20.020Z,50.92
2019-06-15T09:50:20.010Z,51.21
2019-06-15T09:51:19.771Z,50.14
2019-06-15T09:52:20.017Z,49.68
2019-06-15T09:53:19.772Z,47.25
2019-06-15T09:54:20.027Z,47.44
2019-06-15T09:55:20.062Z,48.22
2019-06-15T09:56:19.792Z,49.19
2019-06-15T09:57:20.050Z,49.1
2019-06-15T09:58:20.043Z,48.03
2019-06-15T09:59:28.415Z,47.34
2019-06-15T10:00:20.116Z,47.64
2019-06-15T10:01:19.820Z,46.47
2019-06-15T10:02:20.083Z,46.08
2019-06-15T10:03:19.835Z,47.05
2019-06-15T10:04:20.145Z,47.52
2019-06-15T10:05:20.090Z,48.49
2019-06-15T10:06:20.096Z,48.08
2019-06-15T10:07:19.854Z,48.1
2019-06-15T10:08:19.879Z,48.78
2019-06-15T10:09:20.112Z,48.3
2019-06-15T10:10:19.874Z,48.39
2019-06-15T10:11:20.120Z,46.84
2019-06-15T10:12:20.135Z,46.47
2019-06-15T10:13:19.888Z,46.28
2019-06-15T10:14:20.145Z,45.89
2019-06-15T10:15:20.194Z,46.18
2019-06-15T10:16:20.150Z,47.25
2019-06-15T10:17:19.930Z,47.32
2019-06-15T10:18:19.907Z,47.32
2019-06-15T10:19:20.157Z,47.2
2019-06-15T10:20:20.207Z,48.08
2019-06-15T10:21:20.179Z,47.23
2019-06-15T10:22:20.201Z,47.23
2019-06-15T10:23:19.935Z,48.2
2019-06-15T10:24:20.198Z,48.58
2019-06-15T10:25:20.062Z,48.78
2019-06-15T10:26:20.200Z,49.29
2019-06-15T10:27:20.205Z,50.26
2019-06-15T10:28:19.958Z,50.73
2019-06-15T10:29:20.249Z,51.28
2019-06-15T10:30:20.229Z,51.18
2019-06-15T10:31:20.283Z,51.38
2019-06-15T10:32:20.241Z,51.48
2019-06-15T10:33:20.238Z,51.48
2019-06-15T10:34:20.263Z,52.25
2019-06-15T10:35:20.033Z,52.64
2019-06-15T10:36:20.009Z,52.72
2019-06-15T10:37:20.016Z,53.69
2019-06-15T10:38:20.016Z,53.78
2019-06-15T10:39:20.269Z,53.75
2019-06-15T10:40:20.029Z,53.85
2019-06-15T10:41:20.290Z,51.43
2019-06-15T10:42:22.760Z,51.33
2019-06-15T10:43:20.042Z,50.84
2019-06-15T10:44:20.046Z,51.01
2019-06-15T10:45:20.091Z,52.76
2019-06-15T10:46:20.064Z,54.41
2019-06-15T10:47:20.319Z,54.31
2019-06-15T10:48:20.357Z,54.31
2019-06-15T10:49:20.333Z,54.02
2019-06-15T10:50:20.329Z,53.92
2019-06-15T10:51:20.098Z,53.73
2019-06-15T10:52:20.090Z,53.83
2019-06-15T10:53:20.091Z,54.8
2019-06-15T10:54:20.344Z,54.99
2019-06-15T10:55:21.951Z,54.8
2019-06-15T10:56:20.361Z,54.31
2019-06-15T10:57:20.355Z,53.83
2019-06-15T10:58:20.381Z,54.14
2019-06-15T10:59:20.373Z,54.05
2019-06-15T11:00:20.392Z,54.27
2019-06-15T11:01:20.400Z,53.61
2019-06-15T11:02:20.460Z,52.47
2019-06-15T11:03:20.416Z,51.89
2019-06-15T11:04:20.418Z,51.7
2019-06-15T11:05:20.427Z,51.7
2019-06-15T11:06:20.159Z,52.37
2019-06-15T11:07:20.425Z,52.57
2019-06-15T11:08:20.411Z,52.94
2019-06-15T11:09:20.419Z,53.3
2019-06-15T11:10:20.447Z,54.07
2019-06-15T11:11:23.741Z,55.33
2019-06-15T11:12:20.435Z,55.6
2019-06-15T11:13:20.432Z,55.89
2019-06-15T11:14:20.460Z,56.45
2019-06-15T11:15:20.488Z,56.25
2019-06-15T11:16:20.462Z,56.61
2019-06-15T11:17:20.537Z,57.29
2019-06-15T11:18:20.462Z,57
2019-06-15T11:19:20.249Z,56.15
2019-06-15T11:20:20.484Z,56.25
2019-06-15T11:21:20.476Z,55.87
2019-06-15T11:22:20.496Z,55.47
2019-06-15T11:23:20.494Z,54.82
2019-06-15T11:24:20.272Z,53.37
2019-06-15T11:25:20.587Z,52.91
2019-06-15T11:26:20.504Z,51.67
2019-06-15T11:27:20.498Z,51.48
2019-06-15T11:28:20.549Z,52.03
2019-06-15T11:29:20.552Z,51.45
2019-06-15T11:30:20.544Z,52.03
2019-06-15T11:31:20.558Z,51.75
2019-06-15T11:32:20.548Z,52.62
2019-06-15T11:33:20.557Z,53.32
2019-06-15T11:34:20.566Z,51.97
2019-06-15T11:35:20.308Z,51.48
2019-06-15T11:36:20.319Z,51.87
2019-06-15T11:37:20.588Z,52.84
2019-06-15T11:38:20.568Z,52.84
2019-06-15T11:39:20.397Z,53.88
2019-06-15T11:40:20.616Z,53.88
2019-06-15T11:41:20.585Z,54.46
2019-06-15T11:42:20.333Z,55.21
2019-06-15T11:43:20.597Z,56.76
2019-06-15T11:44:20.614Z,56.64
2019-06-15T11:45:20.346Z,55.67
2019-06-15T11:46:20.610Z,57.12
2019-06-15T11:47:20.611Z,57.39
2019-06-15T11:48:20.637Z,57.39
2019-06-15T11:49:20.372Z,56.9
2019-06-15T11:50:20.622Z,56.32
2019-06-15T11:51:20.376Z,57
2019-06-15T11:52:20.433Z,57.48
2019-06-15T11:53:20.631Z,57.87
2019-06-15T11:54:20.439Z,57.58
2019-06-15T11:55:22.650Z,59.03
2019-06-15T11:56:20.427Z,59.61
2019-06-15T11:57:20.663Z,59.88
2019-06-15T11:58:20.402Z,59.61
2019-06-15T11:59:20.699Z,59.33
2019-06-15T12:00:33.486Z,59.52
2019-06-15T12:01:21.253Z,59.52
2019-06-15T12:02:20.678Z,59.81
2019-06-15T12:03:20.442Z,59.16
2019-06-15T12:04:20.818Z,57.8
2019-06-15T12:05:20.711Z,57.9
2019-06-15T12:06:20.441Z,57.8
2019-06-15T12:07:20.735Z,58.48
2019-06-15T12:08:20.701Z,58
2019-06-15T12:09:20.701Z,57.51
2019-06-15T12:10:20.732Z,57.7
2019-06-15T12:11:20.720Z,57.32
2019-06-15T12:12:20.733Z,55.96
2019-06-15T12:13:20.731Z,55.18
2019-06-15T12:14:20.487Z,54.63
2019-06-15T12:15:20.749Z,54.14
2019-06-15T12:16:20.556Z,54.72
2019-06-15T12:17:20.742Z,54.14
2019-06-15T12:18:20.752Z,53.66
2019-06-15T12:19:20.505Z,54.05
2019-06-15T12:20:20.778Z,54.34
2019-06-15T12:21:20.759Z,55.31
2019-06-15T12:22:20.953Z,55.69
2019-06-15T12:23:20.826Z,55.69
2019-06-15T12:24:21.006Z,55.79
2019-06-15T12:25:20.527Z,55.69
2019-06-15T12:26:20.784Z,56.35
2019-06-15T12:27:20.787Z,56.05
2019-06-15T12:28:20.578Z,56.05
2019-06-15T12:29:20.802Z,55.87
2019-06-15T12:30:20.808Z,56.35
2019-06-15T12:31:20.811Z,55.96
2019-06-15T12:32:20.565Z,56.15
2019-06-15T12:33:20.818Z,55.87
2019-06-15T12:34:23.555Z,55.02
2019-06-15T12:35:20.832Z,54.63
2019-06-15T12:36:22.139Z,54.34
2019-06-15T12:37:20.636Z,54.53
2019-06-15T12:38:20.832Z,55.31
2019-06-15T12:39:20.856Z,55.02
2019-06-15T12:40:20.661Z,54.6
2019-06-15T12:41:20.630Z,54.02
2019-06-15T12:42:20.675Z,54.11
2019-06-15T12:43:20.879Z,54.9
2019-06-15T12:44:20.617Z,55.28
2019-06-15T12:45:20.875Z,55.18
2019-06-15T12:46:20.885Z,55.67
2019-06-15T12:47:20.657Z,56.15
2019-06-15T12:48:20.906Z,56.05
2019-06-15T12:49:20.887Z,54.6
2019-06-15T12:50:20.902Z,53.92
2019-06-15T12:51:20.899Z,53.83
2019-06-15T12:52:20.894Z,52.66
2019-06-15T12:53:20.947Z,52.47
2019-06-15T12:54:20.949Z,52.28
2019-06-15T12:55:20.687Z,53.05